sensor_id;sensor_type;location;lat;lon;timestamp;P1;durP1;ratioP1;P2;durP2;ratioP2
78181;SDS011;67441;50.116;8.696;2023-02-15T00:00:31;29.17;;;13.20;;
78181;SDS011;67441;50.116;8.696;2023-02-15T00:01:33;25.10;;;11.95;;
78181;SDS011;67441;50.116;8.696;2023-02-15T00:02:00;27.00;;;13.15;;
78181;SDS011;67441;50.116;8.696;2023-02-15T00:02:51;27.95;;;13.07;;
78181;SDS011;67441;50.116;8.696;2023-02-15T00:03:17;25.52;;;11.65;;
78181;SDS011;67441;50.116;8.696;2023-02-15T00:04:07;26.35;;;12.23;;
78181;SDS011;67441;50.116;8.696;2023-02-15T00:04:34;26.92;;;12.73;;
78181;SDS011;67441;50.116;8.696;2023-02-15T00:05:12;24.75;;;12.15;;
78181;SDS011;67441;50.116;8.696;2023-02-15T00:06:03;26.42;;;12.30;;
78181;SDS011;67441;50.116;8.696;2023-02-15T00:06:29;30.40;;;13.88;;
78181;SDS011;67441;50.116;8.696;2023-02-15T00:07:19;23.85;;;10.48;;
78181;SDS011;67441;50.116;8.696;2023-02-15T00:08:12;23.75;;;11.15;;
78181;SDS011;67441;50.116;8.696;2023-02-15T00:09:03;21.23;;;9.60;;
78181;SDS011;67441;50.116;8.696;2023-02-15T00:09:29;26.90;;;12.32;;
78181;SDS011;67441;50.116;8.696;2023-02-15T00:10:20;24.92;;;12.30;;
78181;SDS011;67441;50.116;8.696;2023-02-15T00:11:13;23.73;;;11.63;;
78181;SDS011;67441;50.116;8.696;2023-02-15T00:11:40;23.65;;;11.65;;
78181;SDS011;67441;50.116;8.696;2023-02-15T00:12:08;26.70;;;12.43;;
78181;SDS011;67441;50.116;8.696;2023-02-15T00:12:34;26.92;;;12.40;;
78181;SDS011;67441;50.116;8.696;2023-02-15T00:13:25;28.00;;;12.60;;
78181;SDS011;67441;50.116;8.696;2023-02-15T00:13:50;25.67;;;12.93;;
78181;SDS011;67441;50.116;8.696;2023-02-15T00:14:46;24.92;;;11.57;;
78181;SDS011;67441;50.116;8.696;2023-02-15T00:15:14;26.27;;;11.50;;
78181;SDS011;67441;50.116;8.696;2023-02-15T00:15:40;24.75;;;12.63;;
78181;SDS011;67441;50.116;8.696;2023-02-15T00:16:32;25.42;;;10.90;;
78181;SDS011;67441;50.116;8.696;2023-02-15T00:17:27;27.55;;;11.23;;
78181;SDS011;67441;50.116;8.696;2023-02-15T00:17:53;25.20;;;11.88;;
78181;SDS011;67441;50.116;8.696;2023-02-15T00:18:44;25.35;;;12.30;;
78181;SDS011;67441;50.116;8.696;2023-02-15T00:19:35;25.98;;;12.13;;
78181;SDS011;67441;50.116;8.696;2023-02-15T00:20:02;26.88;;;12.32;;
78181;SDS011;67441;50.116;8.696;2023-02-15T00:20:53;26.45;;;10.82;;
78181;SDS011;67441;50.116;8.696;2023-02-15T00:21:43;25.48;;;11.68;;
78181;SDS011;67441;50.116;8.696;2023-02-15T00:22:35;25.15;;;10.52;;
78181;SDS011;67441;50.116;8.696;2023-02-15T00:23:01;23.48;;;11.57;;
78181;SDS011;67441;50.116;8.696;2023-02-15T00:23:56;24.48;;;11.25;;
78181;SDS011;67441;50.116;8.696;2023-02-15T00:24:22;24.05;;;11.38;;
78181;SDS011;67441;50.116;8.696;2023-02-15T00:25:13;27.30;;;12.40;;
78181;SDS011;67441;50.116;8.696;2023-02-15T00:26:06;26.52;;;11.98;;
78181;SDS011;67441;50.116;8.696;2023-02-15T00:26:33;28.20;;;15.02;;
78181;SDS011;67441;50.116;8.696;2023-02-15T00:27:23;25.23;;;11.60;;
78181;SDS011;67441;50.116;8.696;2023-02-15T00:28:14;24.92;;;12.02;;
78181;SDS011;67441;50.116;8.696;2023-02-15T00:28:39;24.42;;;11.38;;
78181;SDS011;67441;50.116;8.696;2023-02-15T00:29:05;23.60;;;10.98;;
78181;SDS011;67441;50.116;8.696;2023-02-15T00:29:56;23.88;;;12.05;;
78181;SDS011;67441;50.116;8.696;2023-02-15T00:30:47;24.73;;;11.18;;
78181;SDS011;67441;50.116;8.696;2023-02-15T00:31:13;27.17;;;11.65;;
78181;SDS011;67441;50.116;8.696;2023-02-15T00:32:04;24.40;;;12.02;;
78181;SDS011;67441;50.116;8.696;2023-02-15T00:32:54;27.85;;;12.07;;
78181;SDS011;67441;50.116;8.696;2023-02-15T00:33:45;24.95;;;10.70;;
78181;SDS011;67441;50.116;8.696;2023-02-15T00:34:40;25.50;;;11.82;;
78181;SDS011;67441;50.116;8.696;2023-02-15T00:35:31;23.42;;;11.00;;
78181;SDS011;67441;50.116;8.696;2023-02-15T00:36:23;22.95;;;11.55;;
78181;SDS011;67441;50.116;8.696;2023-02-15T00:37:13;22.25;;;10.75;;
78181;SDS011;67441;50.116;8.696;2023-02-15T00:38:04;23.33;;;10.40;;
78181;SDS011;67441;50.116;8.696;2023-02-15T00:38:55;21.60;;;9.88;;
78181;SDS011;67441;50.116;8.696;2023-02-15T00:39:46;26.23;;;10.82;;
78181;SDS011;67441;50.116;8.696;2023-02-15T00:40:37;24.58;;;10.65;;
78181;SDS011;67441;50.116;8.696;2023-02-15T00:41:28;25.42;;;11.80;;
78181;SDS011;67441;50.116;8.696;2023-02-15T00:42:19;27.27;;;12.07;;
78181;SDS011;67441;50.116;8.696;2023-02-15T00:42:44;24.52;;;11.32;;
78181;SDS011;67441;50.116;8.696;2023-02-15T00:43:35;28.10;;;12.00;;
78181;SDS011;67441;50.116;8.696;2023-02-15T00:44:26;24.08;;;10.48;;
78181;SDS011;67441;50.116;8.696;2023-02-15T00:45:17;24.08;;;11.85;;
78181;SDS011;67441;50.116;8.696;2023-02-15T00:46:07;23.10;;;10.75;;
78181;SDS011;67441;50.116;8.696;2023-02-15T00:46:58;24.70;;;10.80;;
78181;SDS011;67441;50.116;8.696;2023-02-15T00:47:50;21.10;;;9.57;;
78181;SDS011;67441;50.116;8.696;2023-02-15T00:48:40;22.15;;;8.98;;
78181;SDS011;67441;50.116;8.696;2023-02-15T00:49:31;23.73;;;10.70;;
78181;SDS011;67441;50.116;8.696;2023-02-15T00:50:21;26.25;;;10.45;;
78181;SDS011;67441;50.116;8.696;2023-02-15T00:51:05;26.30;;;11.45;;
78181;SDS011;67441;50.116;8.696;2023-02-15T00:51:31;27.63;;;11.45;;
78181;SDS011;67441;50.116;8.696;2023-02-15T00:51:56;29.00;;;13.25;;
78181;SDS011;67441;50.116;8.696;2023-02-15T00:52:47;25.67;;;10.45;;
78181;SDS011;67441;50.116;8.696;2023-02-15T00:53:38;29.17;;;12.40;;
78181;SDS011;67441;50.116;8.696;2023-02-15T00:54:03;26.27;;;11.02;;
78181;SDS011;67441;50.116;8.696;2023-02-15T00:54:54;29.48;;;13.45;;
78181;SDS011;67441;50.116;8.696;2023-02-15T00:55:44;30.52;;;13.75;;
78181;SDS011;67441;50.116;8.696;2023-02-15T00:56:35;29.55;;;12.93;;
78181;SDS011;67441;50.116;8.696;2023-02-15T00:57:26;28.52;;;11.50;;
78181;SDS011;67441;50.116;8.696;2023-02-15T00:58:16;25.90;;;11.90;;
78181;SDS011;67441;50.116;8.696;2023-02-15T00:59:08;24.40;;;11.45;;
78181;SDS011;67441;50.116;8.696;2023-02-15T00:59:33;30.40;;;13.82;;
78181;SDS011;67441;50.116;8.696;2023-02-15T01:00:24;24.55;;;10.70;;
78181;SDS011;67441;50.116;8.696;2023-02-15T01:01:16;27.60;;;11.32;;
78181;SDS011;67441;50.116;8.696;2023-02-15T01:01:43;27.88;;;12.55;;
78181;SDS011;67441;50.116;8.696;2023-02-15T01:02:33;28.10;;;13.25;;
78181;SDS011;67441;50.116;8.696;2023-02-15T01:03:24;28.08;;;12.68;;
78181;SDS011;67441;50.116;8.696;2023-02-15T01:03:49;29.63;;;12.80;;
78181;SDS011;67441;50.116;8.696;2023-02-15T01:04:40;29.10;;;12.18;;
78181;SDS011;67441;50.116;8.696;2023-02-15T01:05:31;27.52;;;11.85;;
78181;SDS011;67441;50.116;8.696;2023-02-15T01:05:57;33.08;;;15.05;;
78181;SDS011;67441;50.116;8.696;2023-02-15T01:06:48;29.13;;;11.73;;
78181;SDS011;67441;50.116;8.696;2023-02-15T01:07:38;28.33;;;13.18;;
78181;SDS011;67441;50.116;8.696;2023-02-15T01:08:03;30.55;;;13.00;;
78181;SDS011;67441;50.116;8.696;2023-02-15T01:08:55;29.40;;;12.70;;
78181;SDS011;67441;50.116;8.696;2023-02-15T01:09:45;31.33;;;13.52;;
78181;SDS011;67441;50.116;8.696;2023-02-15T01:10:11;28.88;;;12.00;;
78181;SDS011;67441;50.116;8.696;2023-02-15T01:10:36;35.15;;;15.20;;
78181;SDS011;67441;50.116;8.696;2023-02-15T01:11:30;27.55;;;11.75;;
78181;SDS011;67441;50.116;8.696;2023-02-15T01:12:21;31.88;;;14.45;;
78181;SDS011;67441;50.116;8.696;2023-02-15T01:12:46;31.33;;;12.95;;
78181;SDS011;67441;50.116;8.696;2023-02-15T01:13:36;31.23;;;12.70;;
78181;SDS011;67441;50.116;8.696;2023-02-15T01:14:28;34.08;;;12.93;;
78181;SDS011;67441;50.116;8.696;2023-02-15T01:15:18;30.83;;;14.05;;
78181;SDS011;67441;50.116;8.696;2023-02-15T01:16:09;29.95;;;12.23;;
78181;SDS011;67441;50.116;8.696;2023-02-15T01:16:59;29.50;;;12.52;;
78181;SDS011;67441;50.116;8.696;2023-02-15T01:17:50;26.52;;;11.38;;
78181;SDS011;67441;50.116;8.696;2023-02-15T01:18:17;27.65;;;12.63;;
78181;SDS011;67441;50.116;8.696;2023-02-15T01:19:08;30.05;;;12.38;;
78181;SDS011;67441;50.116;8.696;2023-02-15T01:19:59;31.65;;;13.27;;
78181;SDS011;67441;50.116;8.696;2023-02-15T01:20:51;30.75;;;13.27;;
78181;SDS011;67441;50.116;8.696;2023-02-15T01:21:43;29.88;;;14.00;;
78181;SDS011;67441;50.116;8.696;2023-02-15T01:22:34;28.42;;;13.15;;
78181;SDS011;67441;50.116;8.696;2023-02-15T01:23:25;30.20;;;11.70;;
78181;SDS011;67441;50.116;8.696;2023-02-15T01:23:50;31.80;;;12.93;;
78181;SDS011;67441;50.116;8.696;2023-02-15T01:24:16;32.28;;;15.15;;
78181;SDS011;67441;50.116;8.696;2023-02-15T01:25:07;31.55;;;12.38;;
78181;SDS011;67441;50.116;8.696;2023-02-15T01:26:01;27.23;;;12.65;;
78181;SDS011;67441;50.116;8.696;2023-02-15T01:26:27;28.38;;;13.00;;
78181;SDS011;67441;50.116;8.696;2023-02-15T01:27:17;30.13;;;13.70;;
78181;SDS011;67441;50.116;8.696;2023-02-15T01:27:43;27.92;;;13.30;;
78181;SDS011;67441;50.116;8.696;2023-02-15T01:28:09;30.80;;;14.70;;
78181;SDS011;67441;50.116;8.696;2023-02-15T01:29:00;30.35;;;12.05;;
78181;SDS011;67441;50.116;8.696;2023-02-15T01:29:25;34.05;;;14.73;;
78181;SDS011;67441;50.116;8.696;2023-02-15T01:30:16;30.02;;;12.93;;
78181;SDS011;67441;50.116;8.696;2023-02-15T01:31:16;25.90;;;12.05;;
78181;SDS011;67441;50.116;8.696;2023-02-15T01:31:43;30.52;;;12.73;;
78181;SDS011;67441;50.116;8.696;2023-02-15T01:32:33;28.20;;;13.60;;
78181;SDS011;67441;50.116;8.696;2023-02-15T01:33:25;27.88;;;13.07;;
78181;SDS011;67441;50.116;8.696;2023-02-15T01:34:16;25.15;;;11.05;;
78181;SDS011;67441;50.116;8.696;2023-02-15T01:35:07;30.10;;;12.98;;
78181;SDS011;67441;50.116;8.696;2023-02-15T01:35:34;28.50;;;13.05;;
78181;SDS011;67441;50.116;8.696;2023-02-15T01:36:01;29.23;;;13.15;;
78181;SDS011;67441;50.116;8.696;2023-02-15T01:36:53;28.20;;;12.13;;
78181;SDS011;67441;50.116;8.696;2023-02-15T01:37:43;27.38;;;13.43;;
78181;SDS011;67441;50.116;8.696;2023-02-15T01:38:35;29.80;;;13.38;;
78181;SDS011;67441;50.116;8.696;2023-02-15T01:39:01;33.13;;;14.98;;
78181;SDS011;67441;50.116;8.696;2023-02-15T01:39:27;32.30;;;14.93;;
78181;SDS011;67441;50.116;8.696;2023-02-15T01:40:18;28.83;;;12.55;;
78181;SDS011;67441;50.116;8.696;2023-02-15T01:41:09;28.10;;;12.98;;
78181;SDS011;67441;50.116;8.696;2023-02-15T01:41:51;30.33;;;13.10;;
78181;SDS011;67441;50.116;8.696;2023-02-15T01:42:46;30.13;;;13.32;;
78181;SDS011;67441;50.116;8.696;2023-02-15T01:43:15;28.10;;;11.88;;
78181;SDS011;67441;50.116;8.696;2023-02-15T01:45:24;27.20;;;11.75;;
78181;SDS011;67441;50.116;8.696;2023-02-15T01:45:54;26.83;;;11.85;;
78181;SDS011;67441;50.116;8.696;2023-02-15T01:46:49;25.08;;;11.23;;
78181;SDS011;67441;50.116;8.696;2023-02-15T01:47:21;29.40;;;12.68;;
78181;SDS011;67441;50.116;8.696;2023-02-15T01:48:29;31.08;;;13.65;;
78181;SDS011;67441;50.116;8.696;2023-02-15T01:49:25;31.33;;;12.25;;
78181;SDS011;67441;50.116;8.696;2023-02-15T01:49:57;31.27;;;13.82;;
78181;SDS011;67441;50.116;8.696;2023-02-15T01:50:33;29.17;;;12.68;;
78181;SDS011;67441;50.116;8.696;2023-02-15T01:51:00;31.88;;;13.30;;
78181;SDS011;67441;50.116;8.696;2023-02-15T01:51:27;32.58;;;14.82;;
78181;SDS011;67441;50.116;8.696;2023-02-15T01:51:55;30.80;;;13.95;;
78181;SDS011;67441;50.116;8.696;2023-02-15T01:52:25;31.98;;;14.00;;
78181;SDS011;67441;50.116;8.696;2023-02-15T01:52:56;32.63;;;15.15;;
78181;SDS011;67441;50.116;8.696;2023-02-15T01:54:19;31.20;;;13.52;;
78181;SDS011;67441;50.116;8.696;2023-02-15T01:55:29;29.27;;;12.02;;
78181;SDS011;67441;50.116;8.696;2023-02-15T01:56:01;32.65;;;14.30;;
78181;SDS011;67441;50.116;8.696;2023-02-15T01:56:31;28.70;;;13.35;;
78181;SDS011;67441;50.116;8.696;2023-02-15T01:57:01;31.35;;;13.65;;
78181;SDS011;67441;50.116;8.696;2023-02-15T01:57:29;28.30;;;12.93;;
78181;SDS011;67441;50.116;8.696;2023-02-15T01:58:21;30.05;;;12.63;;
78181;SDS011;67441;50.116;8.696;2023-02-15T01:58:47;29.65;;;12.88;;
78181;SDS011;67441;50.116;8.696;2023-02-15T01:59:19;31.08;;;14.13;;
78181;SDS011;67441;50.116;8.696;2023-02-15T02:00:17;28.88;;;13.32;;
78181;SDS011;67441;50.116;8.696;2023-02-15T02:01:08;28.23;;;12.48;;
78181;SDS011;67441;50.116;8.696;2023-02-15T02:01:59;30.05;;;13.25;;
78181;SDS011;67441;50.116;8.696;2023-02-15T02:02:27;31.15;;;12.75;;
78181;SDS011;67441;50.116;8.696;2023-02-15T02:04:16;31.95;;;13.65;;
78181;SDS011;67441;50.116;8.696;2023-02-15T02:04:50;31.73;;;13.68;;
78181;SDS011;67441;50.116;8.696;2023-02-15T02:05:17;29.90;;;13.50;;
78181;SDS011;67441;50.116;8.696;2023-02-15T02:06:08;30.48;;;11.93;;
78181;SDS011;67441;50.116;8.696;2023-02-15T02:06:34;28.10;;;12.32;;
78181;SDS011;67441;50.116;8.696;2023-02-15T02:07:01;31.60;;;13.30;;
78181;SDS011;67441;50.116;8.696;2023-02-15T02:07:29;32.42;;;15.35;;
78181;SDS011;67441;50.116;8.696;2023-02-15T02:08:00;28.42;;;13.18;;
78181;SDS011;67441;50.116;8.696;2023-02-15T02:08:27;30.42;;;14.25;;
78181;SDS011;67441;50.116;8.696;2023-02-15T02:09:19;30.15;;;13.32;;
78181;SDS011;67441;50.116;8.696;2023-02-15T02:10:15;29.67;;;12.45;;
78181;SDS011;67441;50.116;8.696;2023-02-15T02:10:41;29.85;;;13.18;;
78181;SDS011;67441;50.116;8.696;2023-02-15T02:11:36;30.20;;;13.20;;
78181;SDS011;67441;50.116;8.696;2023-02-15T02:12:04;35.30;;;14.55;;
78181;SDS011;67441;50.116;8.696;2023-02-15T02:12:57;29.02;;;12.80;;
78181;SDS011;67441;50.116;8.696;2023-02-15T02:13:24;28.23;;;12.38;;
78181;SDS011;67441;50.116;8.696;2023-02-15T02:14:16;31.90;;;13.55;;
78181;SDS011;67441;50.116;8.696;2023-02-15T02:14:42;29.67;;;13.20;;
78181;SDS011;67441;50.116;8.696;2023-02-15T02:15:09;28.13;;;13.38;;
78181;SDS011;67441;50.116;8.696;2023-02-15T02:16:28;27.20;;;12.20;;
78181;SDS011;67441;50.116;8.696;2023-02-15T02:17:16;28.15;;;12.38;;
78181;SDS011;67441;50.116;8.696;2023-02-15T02:19:32;32.08;;;13.82;;
78181;SDS011;67441;50.116;8.696;2023-02-15T02:23:39;27.52;;;12.00;;
78181;SDS011;67441;50.116;8.696;2023-02-15T02:26:42;32.88;;;13.48;;
78181;SDS011;67441;50.116;8.696;2023-02-15T02:29:31;26.95;;;11.55;;
78181;SDS011;67441;50.116;8.696;2023-02-15T02:31:18;30.38;;;11.85;;
78181;SDS011;67441;50.116;8.696;2023-02-15T02:32:25;29.38;;;12.60;;
78181;SDS011;67441;50.116;8.696;2023-02-15T02:33:47;31.55;;;12.98;;
78181;SDS011;67441;50.116;8.696;2023-02-15T02:35:01;32.70;;;14.18;;
78181;SDS011;67441;50.116;8.696;2023-02-15T02:35:33;32.40;;;13.48;;
78181;SDS011;67441;50.116;8.696;2023-02-15T02:36:18;30.70;;;13.63;;
78181;SDS011;67441;50.116;8.696;2023-02-15T02:38:29;35.10;;;13.60;;
78181;SDS011;67441;50.116;8.696;2023-02-15T02:40:02;30.88;;;13.52;;
78181;SDS011;67441;50.116;8.696;2023-02-15T02:40:48;30.83;;;13.43;;
78181;SDS011;67441;50.116;8.696;2023-02-15T02:41:42;30.10;;;12.50;;
78181;SDS011;67441;50.116;8.696;2023-02-15T02:42:28;26.60;;;12.07;;
78181;SDS011;67441;50.116;8.696;2023-02-15T02:43:04;28.83;;;11.32;;
78181;SDS011;67441;50.116;8.696;2023-02-15T02:44:22;31.10;;;13.02;;
78181;SDS011;67441;50.116;8.696;2023-02-15T02:44:54;33.78;;;13.63;;
78181;SDS011;67441;50.116;8.696;2023-02-15T02:45:43;35.03;;;14.57;;
78181;SDS011;67441;50.116;8.696;2023-02-15T02:46:17;31.13;;;14.50;;
78181;SDS011;67441;50.116;8.696;2023-02-15T02:47:04;34.03;;;14.10;;
78181;SDS011;67441;50.116;8.696;2023-02-15T02:48:13;33.15;;;14.13;;
78181;SDS011;67441;50.116;8.696;2023-02-15T02:48:42;34.28;;;14.40;;
78181;SDS011;67441;50.116;8.696;2023-02-15T02:49:34;27.27;;;12.32;;
78181;SDS011;67441;50.116;8.696;2023-02-15T02:50:03;33.78;;;13.07;;
78181;SDS011;67441;50.116;8.696;2023-02-15T02:50:31;34.28;;;13.95;;
78181;SDS011;67441;50.116;8.696;2023-02-15T02:51:22;28.35;;;12.70;;
78181;SDS011;67441;50.116;8.696;2023-02-15T02:51:57;33.22;;;13.30;;
78181;SDS011;67441;50.116;8.696;2023-02-15T02:53:16;31.00;;;12.43;;
78181;SDS011;67441;50.116;8.696;2023-02-15T02:54:07;35.75;;;13.27;;
78181;SDS011;67441;50.116;8.696;2023-02-15T02:54:34;32.28;;;14.00;;
78181;SDS011;67441;50.116;8.696;2023-02-15T02:55:01;30.48;;;12.38;;
78181;SDS011;67441;50.116;8.696;2023-02-15T02:55:38;33.90;;;13.80;;
78181;SDS011;67441;50.116;8.696;2023-02-15T02:56:06;30.02;;;12.88;;
78181;SDS011;67441;50.116;8.696;2023-02-15T02:56:43;34.20;;;14.95;;
78181;SDS011;67441;50.116;8.696;2023-02-15T02:57:12;33.72;;;14.63;;
78181;SDS011;67441;50.116;8.696;2023-02-15T02:58:08;36.00;;;12.77;;
78181;SDS011;67441;50.116;8.696;2023-02-15T02:58:40;31.58;;;12.63;;
78181;SDS011;67441;50.116;8.696;2023-02-15T02:59:12;32.25;;;13.70;;
78181;SDS011;67441;50.116;8.696;2023-02-15T02:59:45;32.67;;;14.98;;
78181;SDS011;67441;50.116;8.696;2023-02-15T03:00:12;29.88;;;13.95;;
78181;SDS011;67441;50.116;8.696;2023-02-15T03:00:43;30.33;;;14.45;;
78181;SDS011;67441;50.116;8.696;2023-02-15T03:01:15;32.53;;;15.05;;
78181;SDS011;67441;50.116;8.696;2023-02-15T03:02:39;30.75;;;13.25;;
78181;SDS011;67441;50.116;8.696;2023-02-15T03:04:15;30.50;;;13.18;;
78181;SDS011;67441;50.116;8.696;2023-02-15T03:04:47;31.20;;;13.30;;
78181;SDS011;67441;50.116;8.696;2023-02-15T03:05:23;30.70;;;13.07;;
78181;SDS011;67441;50.116;8.696;2023-02-15T03:05:53;37.13;;;17.20;;
78181;SDS011;67441;50.116;8.696;2023-02-15T03:06:23;35.72;;;14.75;;
78181;SDS011;67441;50.116;8.696;2023-02-15T03:06:55;29.63;;;13.80;;
78181;SDS011;67441;50.116;8.696;2023-02-15T03:07:22;33.40;;;14.32;;
78181;SDS011;67441;50.116;8.696;2023-02-15T03:08:16;29.90;;;13.80;;
78181;SDS011;67441;50.116;8.696;2023-02-15T03:08:56;30.83;;;13.00;;
78181;SDS011;67441;50.116;8.696;2023-02-15T03:10:06;31.70;;;13.90;;
78181;SDS011;67441;50.116;8.696;2023-02-15T03:10:33;31.20;;;13.68;;
78181;SDS011;67441;50.116;8.696;2023-02-15T03:11:00;30.77;;;14.18;;
78181;SDS011;67441;50.116;8.696;2023-02-15T03:11:28;31.38;;;13.98;;
78181;SDS011;67441;50.116;8.696;2023-02-15T03:11:54;30.98;;;12.93;;
78181;SDS011;67441;50.116;8.696;2023-02-15T03:12:47;33.75;;;13.88;;
78181;SDS011;67441;50.116;8.696;2023-02-15T03:13:13;34.22;;;13.68;;
78181;SDS011;67441;50.116;8.696;2023-02-15T03:14:04;31.92;;;13.68;;
78181;SDS011;67441;50.116;8.696;2023-02-15T03:15:17;30.90;;;13.57;;
78181;SDS011;67441;50.116;8.696;2023-02-15T03:15:44;29.65;;;12.85;;
78181;SDS011;67441;50.116;8.696;2023-02-15T03:16:30;30.70;;;13.35;;
78181;SDS011;67441;50.116;8.696;2023-02-15T03:17:23;27.10;;;12.52;;
78181;SDS011;67441;50.116;8.696;2023-02-15T03:17:56;31.75;;;12.80;;
78181;SDS011;67441;50.116;8.696;2023-02-15T03:18:29;32.10;;;13.52;;
78181;SDS011;67441;50.116;8.696;2023-02-15T03:19:00;32.10;;;13.23;;
78181;SDS011;67441;50.116;8.696;2023-02-15T03:19:31;36.40;;;14.27;;
78181;SDS011;67441;50.116;8.696;2023-02-15T03:20:01;34.58;;;14.60;;
78181;SDS011;67441;50.116;8.696;2023-02-15T03:20:32;35.40;;;15.85;;
78181;SDS011;67441;50.116;8.696;2023-02-15T03:21:01;34.50;;;13.93;;
78181;SDS011;67441;50.116;8.696;2023-02-15T03:21:31;36.45;;;14.98;;
78181;SDS011;67441;50.116;8.696;2023-02-15T03:21:58;37.35;;;16.10;;
78181;SDS011;67441;50.116;8.696;2023-02-15T03:22:35;35.70;;;15.48;;
78181;SDS011;67441;50.116;8.696;2023-02-15T03:23:10;38.25;;;15.07;;
78181;SDS011;67441;50.116;8.696;2023-02-15T03:23:41;36.80;;;15.40;;
78181;SDS011;67441;50.116;8.696;2023-02-15T03:24:45;33.22;;;13.45;;
78181;SDS011;67441;50.116;8.696;2023-02-15T03:25:22;33.42;;;14.20;;
78181;SDS011;67441;50.116;8.696;2023-02-15T03:25:54;30.13;;;14.32;;
78181;SDS011;67441;50.116;8.696;2023-02-15T03:26:22;35.15;;;13.85;;
78181;SDS011;67441;50.116;8.696;2023-02-15T03:26:50;36.03;;;14.88;;
78181;SDS011;67441;50.116;8.696;2023-02-15T03:27:18;32.45;;;13.98;;
78181;SDS011;67441;50.116;8.696;2023-02-15T03:27:48;34.00;;;14.23;;
78181;SDS011;67441;50.116;8.696;2023-02-15T03:28:19;33.10;;;14.85;;
78181;SDS011;67441;50.116;8.696;2023-02-15T03:28:50;35.75;;;14.43;;
78181;SDS011;67441;50.116;8.696;2023-02-15T03:29:21;36.95;;;15.25;;
78181;SDS011;67441;50.116;8.696;2023-02-15T03:29:53;34.35;;;14.38;;
78181;SDS011;67441;50.116;8.696;2023-02-15T03:30:21;31.38;;;13.60;;
78181;SDS011;67441;50.116;8.696;2023-02-15T03:30:48;35.70;;;15.32;;
78181;SDS011;67441;50.116;8.696;2023-02-15T03:31:18;34.00;;;14.80;;
78181;SDS011;67441;50.116;8.696;2023-02-15T03:31:46;36.28;;;14.63;;
78181;SDS011;67441;50.116;8.696;2023-02-15T03:32:16;34.83;;;15.07;;
78181;SDS011;67441;50.116;8.696;2023-02-15T03:33:08;35.42;;;14.85;;
78181;SDS011;67441;50.116;8.696;2023-02-15T03:33:36;35.83;;;15.00;;
78181;SDS011;67441;50.116;8.696;2023-02-15T03:34:06;36.85;;;15.18;;
78181;SDS011;67441;50.116;8.696;2023-02-15T03:34:36;37.83;;;16.08;;
78181;SDS011;67441;50.116;8.696;2023-02-15T03:35:31;30.55;;;13.88;;
78181;SDS011;67441;50.116;8.696;2023-02-15T03:36:18;35.05;;;13.70;;
78181;SDS011;67441;50.116;8.696;2023-02-15T03:38:09;30.83;;;13.27;;
78181;SDS011;67441;50.116;8.696;2023-02-15T03:38:43;34.03;;;14.65;;
78181;SDS011;67441;50.116;8.696;2023-02-15T03:39:19;34.70;;;14.80;;
78181;SDS011;67441;50.116;8.696;2023-02-15T03:39:55;31.45;;;13.55;;
78181;SDS011;67441;50.116;8.696;2023-02-15T03:40:44;35.47;;;13.95;;
78181;SDS011;67441;50.116;8.696;2023-02-15T03:41:32;33.33;;;14.63;;
78181;SDS011;67441;50.116;8.696;2023-02-15T03:42:37;31.80;;;13.25;;
78181;SDS011;67441;50.116;8.696;2023-02-15T03:43:17;33.25;;;13.07;;
78181;SDS011;67441;50.116;8.696;2023-02-15T03:44:48;30.77;;;12.52;;
78181;SDS011;67441;50.116;8.696;2023-02-15T03:45:22;34.40;;;13.55;;
78181;SDS011;67441;50.116;8.696;2023-02-15T03:45:52;36.22;;;13.80;;
78181;SDS011;67441;50.116;8.696;2023-02-15T03:46:36;31.40;;;13.13;;
78181;SDS011;67441;50.116;8.696;2023-02-15T03:47:10;31.52;;;13.10;;
78181;SDS011;67441;50.116;8.696;2023-02-15T03:47:44;36.38;;;14.38;;
78181;SDS011;67441;50.116;8.696;2023-02-15T03:48:13;37.40;;;15.27;;
78181;SDS011;67441;50.116;8.696;2023-02-15T03:48:44;33.17;;;13.98;;
78181;SDS011;67441;50.116;8.696;2023-02-15T03:49:17;36.97;;;14.90;;
78181;SDS011;67441;50.116;8.696;2023-02-15T03:49:53;35.50;;;15.18;;
78181;SDS011;67441;50.116;8.696;2023-02-15T03:50:27;38.92;;;15.27;;
78181;SDS011;67441;50.116;8.696;2023-02-15T03:51:15;33.22;;;15.55;;
78181;SDS011;67441;50.116;8.696;2023-02-15T03:51:59;32.88;;;13.43;;
78181;SDS011;67441;50.116;8.696;2023-02-15T03:52:27;38.65;;;16.13;;
78181;SDS011;67441;50.116;8.696;2023-02-15T03:52:54;37.50;;;15.23;;
78181;SDS011;67441;50.116;8.696;2023-02-15T03:53:22;42.03;;;17.55;;
78181;SDS011;67441;50.116;8.696;2023-02-15T03:53:50;37.45;;;15.02;;
78181;SDS011;67441;50.116;8.696;2023-02-15T03:54:30;37.53;;;14.85;;
78181;SDS011;67441;50.116;8.696;2023-02-15T03:55:07;35.55;;;15.20;;
78181;SDS011;67441;50.116;8.696;2023-02-15T03:55:34;35.20;;;14.98;;
78181;SDS011;67441;50.116;8.696;2023-02-15T03:55:59;34.45;;;15.57;;
78181;SDS011;67441;50.116;8.696;2023-02-15T03:56:50;31.52;;;16.23;;
78181;SDS011;67441;50.116;8.696;2023-02-15T03:57:35;36.20;;;14.55;;
78181;SDS011;67441;50.116;8.696;2023-02-15T03:58:21;35.03;;;14.50;;
78181;SDS011;67441;50.116;8.696;2023-02-15T03:59:05;33.50;;;14.13;;
78181;SDS011;67441;50.116;8.696;2023-02-15T04:00:34;35.55;;;13.38;;
78181;SDS011;67441;50.116;8.696;2023-02-15T04:02:23;30.73;;;11.65;;
78181;SDS011;67441;50.116;8.696;2023-02-15T04:04:03;34.88;;;14.35;;
78181;SDS011;67441;50.116;8.696;2023-02-15T04:04:36;35.50;;;15.18;;
78181;SDS011;67441;50.116;8.696;2023-02-15T04:05:03;36.35;;;15.98;;
78181;SDS011;67441;50.116;8.696;2023-02-15T04:05:54;33.83;;;14.30;;
78181;SDS011;67441;50.116;8.696;2023-02-15T04:06:45;32.22;;;13.35;;
78181;SDS011;67441;50.116;8.696;2023-02-15T04:07:36;29.55;;;12.98;;
78181;SDS011;67441;50.116;8.696;2023-02-15T04:08:02;33.55;;;14.57;;
78181;SDS011;67441;50.116;8.696;2023-02-15T04:09:12;36.70;;;12.63;;
78181;SDS011;67441;50.116;8.696;2023-02-15T04:09:56;35.78;;;14.43;;
78181;SDS011;67441;50.116;8.696;2023-02-15T04:10:41;33.50;;;13.63;;
78181;SDS011;67441;50.116;8.696;2023-02-15T04:11:18;36.13;;;14.25;;
78181;SDS011;67441;50.116;8.696;2023-02-15T04:12:08;35.47;;;13.82;;
78181;SDS011;67441;50.116;8.696;2023-02-15T04:12:59;28.00;;;11.63;;
78181;SDS011;67441;50.116;8.696;2023-02-15T04:13:56;29.15;;;11.55;;
78181;SDS011;67441;50.116;8.696;2023-02-15T04:15:06;34.95;;;13.18;;
78181;SDS011;67441;50.116;8.696;2023-02-15T04:16:07;38.33;;;15.70;;
78181;SDS011;67441;50.116;8.696;2023-02-15T04:16:58;31.55;;;12.85;;
78181;SDS011;67441;50.116;8.696;2023-02-15T04:17:23;38.22;;;14.05;;
78181;SDS011;67441;50.116;8.696;2023-02-15T04:18:14;34.60;;;12.25;;
78181;SDS011;67441;50.116;8.696;2023-02-15T04:19:25;31.00;;;12.68;;
78181;SDS011;67441;50.116;8.696;2023-02-15T04:20:09;35.70;;;12.23;;
78181;SDS011;67441;50.116;8.696;2023-02-15T04:20:53;35.10;;;13.65;;
78181;SDS011;67441;50.116;8.696;2023-02-15T04:21:36;32.10;;;13.10;;
78181;SDS011;67441;50.116;8.696;2023-02-15T04:22:20;37.10;;;13.80;;
78181;SDS011;67441;50.116;8.696;2023-02-15T04:23:05;31.50;;;13.07;;
78181;SDS011;67441;50.116;8.696;2023-02-15T04:23:50;33.38;;;12.60;;
78181;SDS011;67441;50.116;8.696;2023-02-15T04:24:34;35.85;;;14.23;;